Aviation

FTHA31 MTPP 232200
TAF MTPP 232200Z 2318/2418 12015G25KT SCT024
PROB40 TEMPO 2402/2409 4500 TSRA SCT022CB BKN020
BECMG 2410/2414 VRB02KT 9000 SC020
BECMG 2416/2420 09010G20KT=